CheckWX is a tool to help pilots better visualize weather data.  It is not intended as a substitute for an official pre-flight weather briefing.

02:15:15 UTC

KFTY TAF
Fulton County-Brown Field Airport
Atlanta, Georgia, USA
KFTY 142340Z 1500/1524 VRB03KT P6SM BKN250 FM151100 VRB03KT P6SM SCT035 OVC050 FM151400 10004KT P6SM VCSH SCT015 OVC030 FM151600 11005KT 6SM -SHRA BR OVC015 FM151800 12006KT 4SM -SHRA BR OVC010 TEMPO 1520/1524 3SM RA BR OVC007

Oct-15@
00:00 UTC

Oct-15 @ 00:00 UTC

Oct-15@
11:00 UTC

Oct-15 @ 11:00 UTC

KFTY 142340Z 1500/1524 VRB03KT P6SM BKN250
Wind
  • Variable at 3 KTS
Cloud Levels
  • Broken at 25,000' AGL

Oct-15@
11:00 UTC

Oct-15 @ 11:00 UTC

Oct-15@
14:00 UTC

Oct-15 @ 14:00 UTC

FM151100 VRB03KT P6SM SCT035 OVC050

From

From Standard forecast or significant change

Wind
  • Variable at 3 KTS
Cloud Levels
  • Scattered at 3,500' AGL
  • Overcast at 5,000' AGL

Oct-15@
14:00 UTC

Oct-15 @ 14:00 UTC

Oct-15@
16:00 UTC

Oct-15 @ 16:00 UTC

FM151400 10004KT P6SM VCSH SCT015 OVC030

From

From Standard forecast or significant change

Wind
  • 100° at 4 KTS
Cloud Levels
  • Scattered at 1,500' AGL
  • Overcast at 3,000' AGL

Oct-15@
16:00 UTC

Oct-15 @ 16:00 UTC

Oct-15@
18:00 UTC

Oct-15 @ 18:00 UTC

FM151600 11005KT 6SM -SHRA BR OVC015

From

From Standard forecast or significant change

Wind
  • 110° at 5 KTS
Conditions
Light Rain, Mist
Cloud Levels
  • Overcast at 1,500' AGL

Oct-15@
18:00 UTC

Oct-15 @ 18:00 UTC

Oct-16@
00:00 UTC

Oct-16 @ 00:00 UTC

FM151800 12006KT 4SM -SHRA BR OVC010

From

From Standard forecast or significant change

Wind
  • 120° at 6 KTS
Conditions
Light Rain, Mist
Cloud Levels
  • Overcast at 1,000' AGL

Oct-15@
20:00 UTC

Oct-15 @ 20:00 UTC

Oct-16@
00:00 UTC

Oct-16 @ 00:00 UTC

TEMPO 1520/1524 3SM RA BR OVC007

Temporary

Temporary Changes expected for less than half the time period

Conditions
Rain, Mist
Cloud Levels
  • Overcast at 700' AGL